Izmir, Turkey

3:04 PM EEST on August 26, 2016 (GMT +0300)
Adnan Menderes | | Change Station

Elev 394 ft 38.29 °N, 27.15 °E | Updated 14 minutes ago

Partly Cloudy
Partly Cloudy
91 °F
Feels Like 92 °F
N
21
Wind Variable Wind from North

Today
High -- | Low -- °F
--% Chance of Precip.
Yesterday
High -- | Low -- °F
Precip. -- in
Pressure 29.83 in
Visibility 6.2 miles
Clouds Few 3000 ft
Heat Index 92 °F
Dew Point 63 °F
Humidity 38%
Rainfall 0.00 in
Snow Depth Not available.
6:35 AM 7:49 PM
Waning Crescent, 35% visible
METAR LTBJ 261150Z 35018KT 9999 FEW030 33/17 Q1010 NOSIG RMK RWY16 35015KT
Pressure 29.83 in
Visibility 6.2 miles
Clouds Few 3000 ft
Heat Index 92 °F
Dew Point 63 °F
Humidity 38%
Rainfall 0.00 in
Snow Depth Not available.
6:35 AM 7:49 PM
Waning Crescent, 35% visible
METAR LTBJ 261150Z 35018KT 9999 FEW030 33/17 Q1010 NOSIG RMK RWY16 35015KT

10-Day Weather Forecast

×

Almanac

Astronomy

Aug. 26, 2016 Rise Set
Actual Time
Civil Twilight
Nautical Twilight
Astronomical Twilight
Moon
Length of Visible Light
Length of Day
Tomorrow will be .
, % of the Moon is Illuminated

Today's Extremes

Country Highs Country Lows

Community

WunderPhotos

Upload Photos

1,935,077 photos uploaded!

WunderBlog® & News

Nearby

Air Quality

  Air Quality AQ Index Pollutant
Not available.

Snow Depth

Station Depth Elevation

Earthquake Activity

City Distance Mag. Time & Date
Minimum magnitude displayed is 2.5.

Coastal Water Temperatures

Place Temperature

Stations

Nearby Weather Stations

Station Location Temp. Windchill Dew Point Humidity Wind Precip. Elev Updated Type